createdAt,value
2019-04-23T00:03:47.250Z,75.05
2019-04-23T00:08:50.226Z,75.63
2019-04-23T00:11:15.365Z,76.10
2019-04-23T00:13:43.889Z,76.62
2019-04-23T00:16:15.993Z,75.93
2019-04-23T00:23:54.725Z,76.29
2019-04-23T00:26:24.020Z,76.26
2019-04-23T00:28:56.391Z,76.21
2019-04-23T00:31:18.530Z,76.07
2019-04-23T00:33:36.144Z,75.73
2019-04-23T00:36:10.783Z,76.05
2019-04-23T00:38:38.930Z,76.43
2019-04-23T00:41:05.717Z,76.37
2019-04-23T00:43:34.519Z,76.19
2019-04-23T00:45:59.346Z,76.12
2019-04-23T00:50:56.168Z,75.86
2019-04-23T00:56:03.871Z,75.16
2019-04-23T00:58:32.326Z,75.12
2019-04-23T01:00:52.808Z,75.27
2019-04-23T01:03:20.411Z,75.18
2019-04-23T01:05:50.249Z,75.16
2019-04-23T01:08:18.504Z,74.95
2019-04-23T01:10:52.051Z,74.91
2019-04-23T01:13:22.733Z,74.92
2019-04-23T01:15:46.796Z,74.91
2019-04-23T01:18:18.702Z,74.58
2019-04-23T01:20:51.982Z,74.45
2019-04-23T01:22:57.083Z,74.43
2019-04-23T01:25:41.755Z,74.31
2019-04-23T01:28:33.599Z,74.06
2019-04-23T01:30:55.346Z,74.17
2019-04-23T01:33:27.165Z,73.95
2019-04-23T01:36:03.174Z,73.86
2019-04-23T01:38:24.074Z,74.22
2019-04-23T01:40:42.510Z,74.24
2019-04-23T01:43:16.729Z,73.99
2019-04-23T01:45:34.310Z,73.65
2019-04-23T01:48:05.212Z,73.60
2019-04-23T01:50:43.849Z,73.98
2019-04-23T01:58:20.386Z,73.96
2019-04-23T02:00:34.131Z,74.12
2019-04-23T02:05:38.449Z,73.65
2019-04-23T02:08:03.552Z,73.48
2019-04-23T02:10:39.542Z,73.44
2019-04-23T02:13:01.885Z,73.28
2019-04-23T02:18:05.476Z,73.15
2019-04-23T02:23:16.570Z,73.35
2019-04-23T02:25:50.813Z,73.17
2019-04-23T02:28:19.904Z,72.98
2019-04-23T02:30:54.955Z,72.85
2019-04-23T02:33:17.635Z,72.83
2019-04-23T02:38:10.227Z,73.09
2019-04-23T02:40:46.681Z,72.83
2019-04-23T02:43:09.395Z,73.05
2019-04-23T02:45:45.440Z,72.80
2019-04-23T02:48:10.823Z,73.16
2019-04-23T02:53:03.111Z,72.68
2019-04-23T02:55:31.501Z,72.67
2019-04-23T02:57:50.062Z,72.45
2019-04-23T03:02:54.517Z,72.32
2019-04-23T03:05:26.402Z,72.08
2019-04-23T03:10:18.443Z,72.66
2019-04-23T03:12:43.379Z,72.67
2019-04-23T03:17:47.385Z,73.08
2019-04-23T03:23:27.479Z,74.21
2019-04-23T03:27:56.153Z,74.88
2019-04-23T03:34:42.324Z,74.71
2019-04-23T03:36:23.617Z,74.75
2019-04-23T03:38:19.807Z,74.79
2019-04-23T03:40:41.000Z,75.00
2019-04-23T03:43:06.719Z,74.83
2019-04-23T03:48:14.986Z,74.77
2019-04-23T03:50:52.798Z,74.82
2019-04-23T03:53:32.315Z,75.22
2019-04-23T03:58:27.859Z,77.04
2019-04-23T04:03:42.381Z,76.49
2019-04-23T04:06:16.744Z,76.60
2019-04-23T04:08:18.352Z,76.65
2019-04-23T04:10:54.404Z,76.94
2019-04-23T04:13:22.427Z,77.08
2019-04-23T04:18:31.050Z,77.65
2019-04-23T04:21:01.066Z,77.25
2019-04-23T04:23:19.099Z,77.38
2019-04-23T04:25:44.882Z,77.52
2019-04-23T04:28:12.185Z,77.71
2019-04-23T04:40:59.259Z,78.21
2019-04-23T04:46:05.269Z,78.73
2019-04-23T04:48:09.554Z,78.74
2019-04-23T04:53:31.329Z,79.59
2019-04-23T04:58:04.609Z,80.68
2019-04-23T05:03:18.870Z,80.03
2019-04-23T05:11:11.314Z,79.66
2019-04-23T05:13:41.374Z,79.64
2019-04-23T05:15:58.567Z,79.62
2019-04-23T05:18:34.590Z,79.29
2019-04-23T05:20:58.115Z,79.23
2019-04-23T05:25:49.920Z,80.19
2019-04-23T05:28:24.992Z,80.21
2019-04-23T05:30:54.902Z,80.25
2019-04-23T05:33:17.329Z,80.30
2019-04-23T05:38:29.200Z,80.22
2019-04-23T05:40:48.167Z,80.58
2019-04-23T05:43:15.825Z,81.12
2019-04-23T05:50:49.481Z,81.57
2019-04-23T05:53:05.882Z,81.55
2019-04-23T05:55:30.420Z,81.79
2019-04-23T05:58:00.625Z,82.04
2019-04-23T06:00:34.399Z,81.78
2019-04-23T06:05:30.940Z,83.08
2019-04-23T06:07:59.736Z,82.78
2019-04-23T06:10:45.486Z,82.38
2019-04-23T06:12:55.365Z,82.34
2019-04-23T06:15:20.321Z,82.29
2019-04-23T06:17:52.606Z,82.50
2019-04-23T06:20:15.393Z,82.20
2019-04-23T06:22:51.135Z,81.55
2019-04-23T06:25:19.684Z,81.06
2019-04-23T06:27:47.998Z,80.74
2019-04-23T06:30:07.934Z,81.03
2019-04-23T06:32:37.192Z,80.78
2019-04-23T06:35:04.384Z,80.94
2019-04-23T06:41:05.826Z,80.51
2019-04-23T06:43:37.276Z,80.71
2019-04-23T06:45:57.510Z,80.52
2019-04-23T06:48:27.677Z,80.54
2019-04-23T06:53:25.678Z,80.86
2019-04-23T06:55:59.899Z,80.42
2019-04-23T06:59:12.923Z,80.36
2019-04-23T07:04:43.542Z,80.24
2019-04-23T07:09:31.160Z,80.70
2019-04-23T07:11:55.284Z,80.51
2019-04-23T07:14:40.471Z,79.60
2019-04-23T07:16:57.040Z,79.46
2019-04-23T07:19:39.373Z,79.60
2019-04-23T07:21:58.656Z,78.43
2019-04-23T07:24:28.732Z,78.38
2019-04-23T07:26:55.775Z,78.21
2019-04-23T07:29:52.772Z,78.40
2019-04-23T07:40:40.498Z,76.92
2019-04-23T07:43:30.851Z,76.65
2019-04-23T08:03:48.296Z,74.96
2019-04-23T08:32:35.138Z,72.63
2019-04-23T08:35:16.421Z,72.72
2019-04-23T08:38:26.111Z,72.84
2019-04-23T08:40:57.206Z,72.20
2019-04-23T08:43:31.488Z,72.47
2019-04-23T08:45:53.393Z,72.70
2019-04-23T08:54:06.596Z,71.25
2019-04-23T08:56:31.876Z,71.54
2019-04-23T08:58:59.324Z,70.20
2019-04-23T09:02:11.112Z,68.69
2019-04-23T09:03:56.373Z,67.15
2019-04-23T09:06:25.828Z,68.09
2019-04-23T09:08:50.462Z,68.24
2019-04-23T09:13:59.489Z,68.00
2019-04-23T09:16:37.699Z,66.41
2019-04-23T09:19:09.000Z,66.47
2019-04-23T09:21:34.531Z,66.14
2019-04-23T09:23:59.077Z,65.89
2019-04-23T09:26:30.895Z,64.51
2019-04-23T09:28:56.691Z,64.02
2019-04-23T09:34:45.140Z,63.81
2019-04-23T09:37:16.014Z,64.07
2019-04-23T09:39:49.268Z,64.35
2019-04-23T09:42:16.066Z,63.89
2019-04-23T09:45:00.114Z,63.94
2019-04-23T09:47:45.969Z,63.53
2019-04-23T09:52:52.718Z,63.08
2019-04-23T09:55:16.062Z,63.14
2019-04-23T09:57:43.368Z,62.34
2019-04-23T10:00:10.707Z,61.89
2019-04-23T10:02:28.229Z,62.67
2019-04-23T10:04:53.773Z,63.34
2019-04-23T10:07:21.182Z,62.70
2019-04-23T10:09:36.418Z,62.93
2019-04-23T10:12:07.316Z,61.92
2019-04-23T10:14:34.516Z,62.41
2019-04-23T10:17:02.173Z,62.21
2019-04-23T10:19:28.754Z,61.92
2019-04-23T10:21:55.635Z,61.29
2019-04-23T10:24:37.025Z,61.81
2019-04-23T10:27:04.170Z,61.94
2019-04-23T10:29:56.116Z,61.68
2019-04-23T10:32:22.573Z,61.59
2019-04-23T10:34:57.838Z,61.74
2019-04-23T10:37:30.009Z,62.12
2019-04-23T10:39:53.363Z,62.07
2019-04-23T10:42:14.204Z,62.60
2019-04-23T10:44:54.421Z,62.94
2019-04-23T10:48:15.535Z,63.52
2019-04-23T10:50:46.534Z,64.12
2019-04-23T10:55:47.893Z,64.85
2019-04-23T10:58:15.733Z,64.12
2019-04-23T11:00:40.563Z,64.83
2019-04-23T11:03:21.743Z,64.43
2019-04-23T11:08:08.082Z,64.14
2019-04-23T11:10:26.105Z,63.74
2019-04-23T11:13:09.320Z,62.26
2019-04-23T11:18:08.937Z,63.30
2019-04-23T11:23:29.175Z,61.99
2019-04-23T11:25:48.516Z,62.50
2019-04-23T11:28:27.504Z,62.05
2019-04-23T11:33:30.040Z,62.68
2019-04-23T11:36:22.290Z,61.53
2019-04-23T11:40:48.842Z,61.04
2019-04-23T11:43:29.033Z,61.39
2019-04-23T11:45:57.617Z,59.51
2019-04-23T11:55:53.490Z,59.17
2019-04-23T12:04:12.752Z,58.05
2019-04-23T12:12:03.834Z,58.09
2019-04-23T12:14:42.261Z,55.74
2019-04-23T12:17:17.240Z,55.88
2019-04-23T12:25:00.132Z,55.32
2019-04-23T12:27:00.858Z,55.15
2019-04-23T12:29:35.301Z,55.32
2019-04-23T12:32:23.872Z,55.56
2019-04-23T12:34:52.589Z,54.26
2019-04-23T12:37:24.146Z,54.35
2019-04-23T12:39:50.669Z,55.09
2019-04-23T12:42:37.355Z,54.91
2019-04-23T12:44:53.421Z,54.45
2019-04-23T12:47:25.462Z,53.73
2019-04-23T12:52:12.892Z,54.36
2019-04-23T12:54:53.895Z,54.60
2019-04-23T12:59:39.619Z,53.78
2019-04-23T13:02:05.379Z,54.52
2019-04-23T13:04:38.087Z,54.79
2019-04-23T13:07:11.086Z,54.69
2019-04-23T13:09:45.806Z,54.74
2019-04-23T13:12:10.512Z,54.61
2019-04-23T13:14:47.417Z,54.48
2019-04-23T13:17:11.772Z,54.84
2019-04-23T13:19:45.082Z,54.92
2019-04-23T13:24:40.761Z,54.66
2019-04-23T13:27:40.985Z,54.80
2019-04-23T13:30:10.791Z,54.81
2019-04-23T13:32:33.345Z,54.80
2019-04-23T13:35:14.946Z,54.41
2019-04-23T13:37:29.497Z,54.18
2019-04-23T13:39:52.904Z,53.80
2019-04-23T13:42:31.697Z,53.95
2019-04-23T13:44:51.874Z,53.66
2019-04-23T13:47:28.256Z,54.22
2019-04-23T13:49:51.324Z,53.81
2019-04-23T13:54:59.615Z,54.04
2019-04-23T13:59:44.455Z,54.20
2019-04-23T14:02:03.676Z,54.65
2019-04-23T14:04:44.641Z,54.24
2019-04-23T14:07:05.451Z,54.35
2019-04-23T14:11:59.831Z,54.51
2019-04-23T14:17:37.914Z,54.24
2019-04-23T14:19:41.918Z,52.12
2019-04-23T14:24:46.218Z,52.31
2019-04-23T14:27:09.386Z,51.95
2019-04-23T14:29:39.017Z,51.62
2019-04-23T14:32:10.279Z,50.39
2019-04-23T14:34:29.234Z,51.02
2019-04-23T14:37:08.556Z,50.44
2019-04-23T14:39:25.517Z,49.12
2019-04-23T14:41:56.456Z,49.04
2019-04-23T14:44:43.910Z,50.02
2019-04-23T14:47:16.773Z,49.39
2019-04-23T14:52:12.302Z,49.55
2019-04-23T14:55:17.413Z,49.47
2019-04-23T14:59:30.745Z,49.12
2019-04-23T15:02:05.536Z,49.14
2019-04-23T15:04:39.458Z,48.83
2019-04-23T15:07:09.247Z,49.65
2019-04-23T15:09:37.436Z,49.88
2019-04-23T15:12:09.975Z,49.06
2019-04-23T15:14:28.478Z,48.84
2019-04-23T15:16:59.861Z,49.48
2019-04-23T15:24:37.631Z,48.59
2019-04-23T15:29:19.996Z,49.26
2019-04-23T15:32:00.811Z,49.47
2019-04-23T15:34:23.529Z,49.04
2019-04-23T15:37:15.656Z,49.56
2019-04-23T15:42:09.311Z,50.35
2019-04-23T15:44:36.207Z,50.39
2019-04-23T15:51:52.155Z,50.70
2019-04-23T15:54:19.657Z,50.56
2019-04-23T16:03:40.869Z,51.18
2019-04-23T16:06:07.866Z,50.99
2019-04-23T16:11:41.322Z,51.37
2019-04-23T16:14:20.374Z,51.13
2019-04-23T16:16:30.992Z,51.26
2019-04-23T16:21:41.606Z,51.98
2019-04-23T16:24:01.203Z,52.13
2019-04-23T16:26:31.281Z,52.48
2019-04-23T16:29:23.380Z,52.21
2019-04-23T16:34:05.125Z,52.26
2019-04-23T16:36:23.181Z,52.11
2019-04-23T16:41:25.579Z,52.71
2019-04-23T16:46:17.835Z,52.49
2019-04-23T16:49:05.705Z,52.70
2019-04-23T16:51:24.652Z,52.78
2019-04-23T16:53:35.787Z,53.04
2019-04-23T16:56:19.889Z,53.30
2019-04-23T17:03:43.910Z,53.83
2019-04-23T17:06:20.346Z,53.94
2019-04-23T17:11:29.524Z,54.35
2019-04-23T17:13:37.769Z,54.19
2019-04-23T17:16:16.478Z,53.82
2019-04-23T17:18:37.579Z,53.79
2019-04-23T17:21:10.145Z,53.57
2019-04-23T17:26:15.880Z,53.51
2019-04-23T17:28:31.829Z,50.42
2019-04-23T17:31:18.379Z,51.23
2019-04-23T17:36:14.615Z,50.79
2019-04-23T17:41:15.749Z,51.82
2019-04-23T17:43:47.018Z,50.63
2019-04-23T17:46:05.280Z,51.29
2019-04-23T17:48:42.946Z,51.72
2019-04-23T17:53:40.052Z,52.30
2019-04-23T17:58:43.908Z,52.33
2019-04-23T18:01:17.699Z,51.62
2019-04-23T18:03:45.599Z,51.87
2019-04-23T18:06:14.240Z,51.98
2019-04-23T18:13:28.274Z,51.41
2019-04-23T18:16:02.379Z,52.38
2019-04-23T18:18:34.875Z,53.07
2019-04-23T18:21:13.761Z,53.05
2019-04-23T18:24:10.408Z,53.51
2019-04-23T18:26:24.794Z,53.86
2019-04-23T18:29:00.299Z,54.25
2019-04-23T18:31:31.858Z,54.66
2019-04-23T18:36:26.135Z,54.70
2019-04-23T18:38:59.784Z,55.00
2019-04-23T18:41:17.524Z,55.84
2019-04-23T18:44:00.727Z,56.41
2019-04-23T18:46:32.031Z,56.41
2019-04-23T18:48:49.773Z,56.12
2019-04-23T18:51:35.141Z,56.06
2019-04-23T18:53:48.545Z,55.87
2019-04-23T18:56:43.385Z,56.11
2019-04-23T18:58:54.648Z,56.78
2019-04-23T19:06:29.833Z,56.85
2019-04-23T19:09:18.172Z,57.00
2019-04-23T19:12:19.754Z,56.50
2019-04-23T19:14:38.917Z,56.65
2019-04-23T19:17:30.693Z,56.83
2019-04-23T19:19:33.650Z,56.58
2019-04-23T19:22:14.340Z,56.54
2019-04-23T19:24:27.831Z,56.89
2019-04-23T19:29:36.376Z,57.24
2019-04-23T19:32:24.415Z,57.37
2019-04-23T19:37:35.495Z,56.87
2019-04-23T19:39:36.870Z,56.91
2019-04-23T19:42:03.785Z,57.26
2019-04-23T19:44:40.993Z,56.74
2019-04-23T19:47:12.482Z,56.90
2019-04-23T19:49:32.688Z,56.69
2019-04-23T19:51:59.581Z,56.91
2019-04-23T19:54:36.881Z,56.22
2019-04-23T19:56:55.098Z,55.71
2019-04-23T19:59:32.029Z,55.91
2019-04-23T20:04:26.339Z,56.24
2019-04-23T20:14:11.281Z,56.55
2019-04-23T20:17:02.572Z,56.64
2019-04-23T20:19:28.097Z,56.50
2019-04-23T20:21:54.902Z,56.39
2019-04-23T20:24:28.285Z,56.58
2019-04-23T20:26:51.424Z,56.60
2019-04-23T20:29:29.885Z,55.97
2019-04-23T20:36:52.757Z,54.95
2019-04-23T20:39:32.949Z,54.83
2019-04-23T20:44:47.224Z,55.53
2019-04-23T20:47:00.542Z,55.54
2019-04-23T20:49:33.001Z,55.75
2019-04-23T20:52:00.697Z,55.32
2019-04-23T20:54:18.822Z,55.77
2019-04-23T20:56:49.902Z,55.17
2019-04-23T20:59:30.862Z,55.78
2019-04-23T21:01:57.175Z,55.53
2019-04-23T21:04:17.304Z,54.43
2019-04-23T21:16:36.006Z,54.89
2019-04-23T21:19:16.533Z,53.22
2019-04-23T21:21:42.993Z,53.31
2019-04-23T21:24:01.322Z,53.62
2019-04-23T21:26:35.428Z,52.85
2019-04-23T21:31:48.584Z,53.62
2019-04-23T21:34:21.062Z,53.29
2019-04-23T21:36:45.757Z,52.85
2019-04-23T21:46:48.294Z,52.38
2019-04-23T21:49:16.462Z,52.51
2019-04-23T21:51:45.799Z,52.01
2019-04-23T21:54:01.352Z,51.84
2019-04-23T21:56:41.580Z,51.75
2019-04-23T21:59:03.946Z,50.98
2019-04-23T22:01:39.832Z,50.01
2019-04-23T22:09:21.706Z,49.34
2019-04-23T22:14:13.090Z,49.27
2019-04-23T22:21:43.050Z,48.08
2019-04-23T22:24:54.526Z,48.63
2019-04-23T22:34:02.240Z,49.55
2019-04-23T22:36:23.039Z,49.73
2019-04-23T22:38:59.681Z,49.51
2019-04-23T22:41:16.386Z,50.13
2019-04-23T22:44:00.503Z,50.14
2019-04-23T22:48:57.924Z,50.36
2019-04-23T22:51:24.091Z,50.87
2019-04-23T22:53:55.252Z,50.39
2019-04-23T22:56:06.554Z,50.43
2019-04-23T22:58:51.768Z,50.42
2019-04-23T23:04:00.156Z,50.83
2019-04-23T23:09:25.334Z,51.27
2019-04-23T23:11:22.524Z,51.73
2019-04-23T23:16:21.606Z,52.17
2019-04-23T23:18:49.442Z,52.87
2019-04-23T23:21:19.911Z,52.82
2019-04-23T23:23:48.141Z,53.01
2019-04-23T23:28:41.261Z,53.46
2019-04-23T23:31:17.352Z,53.71
2019-04-23T23:33:43.147Z,54.36
2019-04-23T23:36:23.284Z,54.34
2019-04-23T23:38:42.328Z,53.96
2019-04-23T23:46:24.455Z,54.88
2019-04-23T23:48:31.391Z,55.19
2019-04-23T23:51:01.544Z,55.38
2019-04-23T23:53:32.808Z,55.50
2019-04-23T23:56:10.951Z,55.67
2019-04-23T23:58:29.005Z,55.55
